AirNav   Phillips 66 Aviation Fuel
 
 281 users online  

4A5 Searcy County Airport
Marshall, Arkansas, USA

GOING TO MARSHALL?


FAA INFORMATION EFFECTIVE 08 NOVEMBER 2018

Location

FAA Identifier: 4A5
Lat/Long: 35-53-55.3000N / 092-39-22.8000W
35-53.921667N / 092-39.380000W
35.8986944 / -92.6563333
(estimated)
Elevation: 963.6 ft. / 293.7 m (surveyed)
Variation: 00E (2020)
From city: 1 mile SW of MARSHALL, AR
Time zone: UTC -6 (UTC -5 during Daylight Saving Time)
Zip code: 72650

Airport Operations

Airport use: Open to the public
Activation date: 05/1994
Control tower: no
ARTCC: MEMPHIS CENTER
FSS: JONESBORO FLIGHT SERVICE STATION
NOTAMs facility: JBR (NOTAM-D service available)
Attendance: UNATNDD
Wind indicator: lighted
Segmented circle: yes
Lights: ACTVT MIRL RY 05/23, REIL RYS 05 & 23 - CTAF.
Beacon: white-green (lighted land airport)
Operates sunset to sunrise.

Airport Communications

CTAF: 122.9
  • APCH/DEP SVC PRVDD BT MEMPHIS ARTCC (ZME) ON FREQ 126.850/281.550 (BRINKLEY & HARRISON RCAG).

Nearby radio navigation aids

VOR radial/distance  VOR name  Freq  Var
HROr129/36.9HARRISON VOR/DME112.5004E

Airport Services

Fuel available: 100LL
FUEL AVBL SELF-SERVE 24 HRS WITH CREDIT CARD.
Parking: hangars and tiedowns

Runway Information

Runway 5/23

Dimensions: 4003 x 75 ft. / 1220 x 23 m
Surface: asphalt, in good condition
Weight bearing capacity: 
Single wheel: 12.5
Runway edge lights: medium intensity
RUNWAY 5  RUNWAY 23
Latitude: 35-53.714998N35-54.128610N
Longitude: 092-39.695905W092-39.064618W
Elevation: 923.7 ft.963.5 ft.
Gradient: 1.0% UP
Traffic pattern: leftright
Markings: nonprecision, in good conditionnonprecision, in good condition
Visual slope indicator: 2-light PAPI on left (3.25 degrees glide path)
RY05 PAPI UNUSBL 9 DEGS EACH SIDE OF CNTRLN.
2-light PAPI on left (3.25 degrees glide path)
PAPI UNUSBL BYD 7 DEGS RIGHT OF CNTRLN.
Runway end identifier lights: yes
RWY 05 REIL OTS INDEFLY
yes
RWY 23 REIL OTS INDEFLY
Touchdown point: yes, no lightsyes, no lights
Obstructions: none27 ft. tree, 1125 ft. from runway, 300 ft. right of centerline, 34:1 slope to clear

Airport Ownership and Management from official FAA records

Ownership: Publicly-owned
Owner: SEARCY COUNTY
PO BOX 1370
MARSHALL, AR 72650
Phone 870-448-3554
Manager: SHIRL WILLIAMS, CHAIRMAN
P.O. BOX 1033
MARSHALL, AR 72650
Phone 870-404-1444

Airport Operational Statistics

Aircraft based on the field: 6
Single engine airplanes: 6
    
Aircraft operations: avg 29/week *
53% local general aviation
47% transient general aviation
* for 12-month period ending 28 February 2016

Additional Remarks

LGTD TOWER 2059 FT MSL/299 FT AGL ON MOUNTAIN TOP 1 MILE EAST OF ARPT.
DEER ON & INVOF ARPT.

Instrument Procedures

NOTE: All procedures below are presented as PDF files. If you need a reader for these files, you should download the free Adobe Reader.

NOT FOR NAVIGATION. Please procure official charts for flight.
FAA instrument procedures published for use from 8 November 2018 at 0901Z to 6 December 2018 at 0900Z.

 
IAPs - Instrument Approach Procedures
RNAV (GPS) RWY 05   download (223KB)
RNAV (GPS) RWY 23   download (204KB)
NOTE: Special Take-Off Minimums/Departure Procedures apply   download (186KB)

Other nearby airports with instrument procedures:

2A2 - Holley Mountain Airpark (19 nm SE)
KCCA - Clinton Municipal Airport (21 nm SE)
KFLP - Marion County Regional Airport (24 nm N)
7M2 - Mountain View Airport-Wilcox Memorial Field (28 nm E)
KBPK - Baxter County Airport (30 nm N)
 
Loc | Ops | Rwys | IFR | FBO | Links
Com | Nav | Svcs | Stats | Notes

Branson Jet Center
AirBoss

 
Area around 4A5 (Searcy County Airport)
 
Road maps at: MapQuest Bing Google
 
Aerial photo
WARNING: Photo may not be current or correct
Aerial photo of 4A5 (Searcy County Airport)
Taken in the Summer of 2012
looking south.

Do you have a better or more recent aerial photo of Searcy County Airport that you would like to share? If so, please send us your photo.

 
Sectional chart

 
Airport distance calculator
Flying to Searcy County Airport? Find the distance to fly.

From to 4A5

Sunrise and sunset
Times for 17-Nov-2018
 Local
(UTC-6)
 Zulu
(UTC)
Morning civil twilight06:2312:23
Sunrise06:5012:50
Sunset17:0123:01
Evening civil twilight17:2923:29

Current date and time
Zulu (UTC)  17-Nov-2018 08:40:27
Local (UTC-6)  17-Nov-2018 02:40:27
 
METAR
KCCA 
21nm SE 
170815Z AUTO 00000KT 10SM CLR M00/M00 A3012 RMK AO2
KFLP 
25nm N 
170756Z AUTO 00000KT 10SM CLR 03/01 A3008 RMK AO2 SLP187 T00280011
KBPK 
30nm N 
170753Z AUTO 19005KT 10SM CLR 07/03 A3006 RMK AO2 SLP178 T00670033
KHRO 
33nm NW 
170753Z AUTO 14004KT 10SM CLR 06/02 A3005 RMK AO2 SLP174 T00560022
TAF
KBPK 
30nm N 
170521Z 1706/1806 VRB03KT P6SM SKC FM171700 19005KT P6SM SKC FM180400 VRB05KT P6SM OVC100
KHRO 
33nm NW 
170521Z 1706/1806 VRB03KT P6SM SKC FM171500 19005KT P6SM SKC FM180300 VRB06KT P6SM OVC100
NOTAMs
Click for the latest NOTAMs
NOTAMs are issued by the DoD/FAA and will open in a separate window not controlled by AirNav.

 

 
 

FBO, Fuel Providers, and Aircraft Ground Support

  
 Business Name 
 
 Contact 
 
 Services / Description 
 
Fuel Prices
 
Comments
  
Searcy County Airport 870-404-1444
no information available

If you are affiliated with Searcy County Airport and would like to show here your services, contact info, web link, logo, and more, click here
100LL
AS $4.25 
 Updated 14-Nov-2018
 
   write
AS=Assisted/Self Service
Update Fuel Prices
 

Would you like to see your business listed on this page?

 If your business provides an interesting product or service to pilots, flight crews, aircraft, or users of the Searcy County Airport, you should consider listing it here.  To start the listing process, click on the button below
 
Add a business
 

Other Pages about Searcy County Airport

Update a link
 
Copyright © AirNav, LLC. All rights reserved. Privacy Policy  Contact